Time;durP1;ratioP1;P1;durP2;ratioP2;P2;SDS_P1;SDS_P2;PMS_P1;PMS_P2;Temp;Humidity;BMP_temperature;BMP_pressure;BME280_temperature;BME280_humidity;BME280_pressure;Samples;Min_cycle;Max_cycle;Signal;HPM_P1;HPM_P2
2021/07/28 00:00:06;;;;;;;;;;;21.20;96.40;21.20;99421.00;;;;344399;28;91352;-90
2021/07/28 00:00:18;;;;;;;;;;;21.20;96.40;21.20;99419.00;;;;343581;28;83532;-90
2021/07/28 00:00:30;;;;;;;;;;;21.20;96.40;21.20;99419.00;;;;344377;28;92007;-90
2021/07/28 00:00:41;;;;;;;;;;;21.20;96.50;21.20;99417.00;;;;344561;28;83625;-90
2021/07/28 00:00:53;;;;;;;;;;;21.30;96.50;21.20;99423.00;;;;343528;28;90319;-90
2021/07/28 00:01:05;;;;;;;;;;;21.20;96.50;21.20;99420.00;;;;343842;28;83405;-90
2021/07/28 00:01:18;;;;;;;;;;;21.20;96.60;21.20;99419.00;;;;345689;28;89421;-90
2021/07/28 00:01:30;;;;;;;;;;;21.30;96.70;21.20;99422.00;;;;346296;28;82449;-90
2021/07/28 00:01:42;;;;;;;;;;;21.20;96.60;21.30;99417.00;;;;344378;28;92347;-90
2021/07/28 00:01:54;;;;;;;;;;;21.30;96.70;21.30;99406.00;;;;343547;28;83563;-90
2021/07/28 00:02:06;;;;;;;;;;;21.30;96.70;21.20;99422.00;;;;344514;28;91316;-90
2021/07/28 00:02:18;;;;;;;;;;;21.30;96.70;21.10;99427.00;;;;347603;27;83491;-90
2021/07/28 00:02:29;;;;;;;;;;;21.20;96.70;21.10;99423.00;;;;341694;28;91564;-91
2021/07/28 00:02:43;;;;;;;;;;;21.20;96.90;21.10;99428.00;;;;346298;28;82630;-90
2021/07/28 00:02:55;;;;;;;;;;;21.20;96.60;21.10;99422.00;;;;343115;28;92223;-90
2021/07/28 00:03:07;;;;;;;;;;;21.20;96.60;21.20;99422.00;;;;342268;28;83345;-90
2021/07/28 00:03:19;;;;;;;;;;;21.20;96.60;21.20;99423.00;;;;344537;28;91957;-90
2021/07/28 00:03:30;;;;;;;;;;;21.20;96.70;21.20;99422.00;;;;343612;28;82377;-90
2021/07/28 00:03:42;;;;;;;;;;;21.20;96.80;21.10;99418.00;;;;344328;28;90903;-90
2021/07/28 00:04:11;;;;;;;;;;;21.20;96.70;21.10;99418.00;;;;343290;28;84030;-91
2021/07/28 00:04:23;;;;;;;;;;;21.20;96.70;21.10;99431.00;;;;344354;28;90942;-91
2021/07/28 00:04:35;;;;;;;;;;;21.20;96.70;21.00;99420.00;;;;344858;28;82438;-90
2021/07/28 00:04:48;;;;;;;;;;;21.20;96.60;21.10;99417.00;;;;344486;28;91301;-91
2021/07/28 00:05:00;;;;;;;;;;;21.20;96.70;21.10;99423.00;;;;343324;28;83412;-91
2021/07/28 00:05:12;;;;;;;;;;;21.10;96.80;21.10;99429.00;;;;342928;28;91657;-91
2021/07/28 00:05:24;;;;;;;;;;;21.20;96.90;21.10;99432.00;;;;343440;28;83367;-91
2021/07/28 00:05:36;;;;;;;;;;;21.20;97.00;21.20;99438.00;;;;342917;28;91471;-91
2021/07/28 00:05:48;;;;;;;;;;;21.20;96.90;21.10;99429.00;;;;342050;28;82575;-91
2021/07/28 00:06:00;;;;;;;;;;;21.20;96.80;21.10;99432.00;;;;344342;28;91949;-91
2021/07/28 00:06:21;;;;;;;;;;;21.20;97.00;21.10;99433.00;;;;344633;28;83581;-91
2021/07/28 00:06:33;;;;;;;;;;;21.20;96.80;21.10;99434.00;;;;342988;28;91494;-91
2021/07/28 00:06:45;;;;;;;;;;;21.20;96.80;21.20;99432.00;;;;344750;28;83430;-91
2021/07/28 00:06:57;;;;;;;;;;;21.20;96.80;21.10;99433.00;;;;342400;28;90625;-91
2021/07/28 00:07:09;;;;;;;;;;;21.20;96.80;21.20;99429.00;;;;343253;28;83522;-91
2021/07/28 00:07:21;;;;;;;;;;;21.20;96.80;21.20;99433.00;;;;342858;28;92546;-91
2021/07/28 00:07:33;;;;;;;;;;;21.10;96.70;21.20;99434.00;;;;344732;28;83527;-91
2021/07/28 00:07:45;;;;;;;;;;;21.20;96.80;21.20;99424.00;;;;344296;28;91000;-91
2021/07/28 00:07:56;;;;;;;;;;;21.20;97.10;21.20;99431.00;;;;344500;28;83428;-91
2021/07/28 00:08:08;;;;;;;;;;;21.20;96.90;21.20;99431.00;;;;344413;28;90726;-92
2021/07/28 00:08:21;;;;;;;;;;;21.20;97.00;21.20;99420.00;;;;343379;28;82595;-91
2021/07/28 00:08:33;;;;;;;;;;;21.20;96.90;21.20;99428.00;;;;345839;28;90445;-92
2021/07/28 00:08:45;;;;;;;;;;;21.20;96.90;21.30;99427.00;;;;347548;28;83498;-92
2021/07/28 00:08:57;;;;;;;;;;;21.10;96.90;21.10;99434.00;;;;342994;28;91610;-92
2021/07/28 00:09:08;;;;;;;;;;;21.10;96.90;21.10;99427.00;;;;344681;28;83529;-92
2021/07/28 00:09:20;;;;;;;;;;;21.20;97.10;21.20;99429.00;;;;345720;28;92582;-92
2021/07/28 00:09:32;;;;;;;;;;;21.20;97.10;21.10;99422.00;;;;346169;28;82510;-92
2021/07/28 00:09:44;;;;;;;;;;;21.20;97.20;21.20;99427.00;;;;346966;27;91983;-92
2021/07/28 00:09:56;;;;;;;;;;;21.10;97.20;21.20;99420.00;;;;344296;28;83667;-92
2021/07/28 00:10:08;;;;;;;;;;;21.20;97.30;21.20;99430.00;;;;344199;28;91735;-92
2021/07/28 00:10:20;;;;;;;;;;;21.20;97.30;21.20;99419.00;;;;342992;28;82534;-92
2021/07/28 00:10:32;;;;;;;;;;;21.20;97.30;21.10;99426.00;;;;343076;28;91486;-92
2021/07/28 00:10:44;;;;;;;;;;;21.20;97.30;21.00;99428.00;;;;343343;28;84086;-92
2021/07/28 00:10:55;;;;;;;;;;;21.10;97.20;21.10;99429.00;;;;343532;28;91654;-92
2021/07/28 00:11:11;;;;;;;;;;;21.20;97.20;21.10;99421.00;;;;343223;28;83537;-92
2021/07/28 00:11:23;;;;;;;;;;;21.20;97.20;21.20;99430.00;;;;344295;28;92563;-91
2021/07/28 00:11:35;;;;;;;;;;;21.20;97.40;21.20;99423.00;;;;342017;28;83562;-92
2021/07/28 00:11:49;;;;;;;;;;;21.20;97.20;21.00;99426.00;;;;344312;28;91862;-92
2021/07/28 00:12:01;;;;;;;;;;;21.10;97.20;21.00;99419.00;;;;343479;28;83460;-92
2021/07/28 00:12:13;;;;;;;;;;;21.10;97.30;21.10;99417.00;;;;344347;28;90949;-92
2021/07/28 00:12:25;;;;;;;;;;;21.10;97.30;21.10;99427.00;;;;344804;28;83435;-92
2021/07/28 00:12:37;;;;;;;;;;;21.10;97.30;21.10;99415.00;;;;343021;28;91285;-91
2021/07/28 00:12:48;;;;;;;;;;;21.20;97.30;21.20;99423.00;;;;341964;28;82490;-92
2021/07/28 00:13:01;;;;;;;;;;;21.20;97.30;21.20;99417.00;;;;342323;28;91851;-91
2021/07/28 00:13:12;;;;;;;;;;;21.20;97.30;21.20;99418.00;;;;343382;28;83393;-92
2021/07/28 00:13:24;;;;;;;;;;;21.20;97.30;21.20;99417.00;;;;344052;28;92404;-91
2021/07/28 00:13:36;;;;;;;;;;;21.20;97.30;21.20;99417.00;;;;344614;28;83444;-91
2021/07/28 00:13:50;;;;;;;;;;;21.10;97.30;21.10;99426.00;;;;342973;28;91586;-92
2021/07/28 00:14:02;;;;;;;;;;;21.20;97.30;21.00;99419.00;;;;344742;28;83360;-92
2021/07/28 00:14:14;;;;;;;;;;;21.10;97.30;21.10;99424.00;;;;343004;28;90365;-92
2021/07/28 00:14:26;;;;;;;;;;;21.20;97.50;21.20;99426.00;;;;343326;28;83370;-91
2021/07/28 00:14:37;;;;;;;;;;;21.20;97.50;21.20;99426.00;;;;343011;28;91146;-91
2021/07/28 00:14:49;;;;;;;;;;;21.20;97.50;21.20;99421.00;;;;342042;28;82483;-92
2021/07/28 00:15:01;;;;;;;;;;;21.20;97.50;21.20;99417.00;;;;342958;28;91282;-91
2021/07/28 00:15:13;;;;;;;;;;;21.10;97.40;21.20;99421.00;;;;346112;28;83455;-91
2021/07/28 00:15:25;;;;;;;;;;;21.20;97.40;21.10;99422.00;;;;344189;28;92467;-91
2021/07/28 00:15:37;;;;;;;;;;;21.20;97.40;21.20;99417.00;;;;347569;27;82540;-91
2021/07/28 00:15:49;;;;;;;;;;;21.10;97.40;21.20;99432.00;;;;344132;28;91761;-91
2021/07/28 00:16:01;;;;;;;;;;;21.20;97.40;21.10;99425.00;;;;342921;28;82540;-91
2021/07/28 00:16:14;;;;;;;;;;;21.20;97.40;21.20;99429.00;;;;342894;28;91590;-91
2021/07/28 00:16:26;;;;;;;;;;;21.20;97.40;21.20;99422.00;;;;343404;28;83432;-91
2021/07/28 00:16:38;;;;;;;;;;;21.20;97.50;21.20;99420.00;;;;344280;28;92245;-91
2021/07/28 00:16:50;;;;;;;;;;;21.20;97.50;21.30;99426.00;;;;344484;28;84056;-91
2021/07/28 00:17:02;;;;;;;;;;;21.20;97.60;21.30;99422.00;;;;342877;28;91150;-91
2021/07/28 00:17:14;;;;;;;;;;;21.20;97.60;21.30;99428.00;;;;344733;28;83487;-91
2021/07/28 00:17:28;;;;;;;;;;;21.20;97.60;21.30;99420.00;;;;344305;28;92072;-91
2021/07/28 00:17:52;;;;;;;;;;;21.10;97.50;21.20;99419.00;;;;343341;28;82560;-91
2021/07/28 00:18:12;;;;;;;;;;;21.10;97.50;21.20;99419.00;;;;341653;28;91811;-91
2021/07/28 00:19:10;;;;;;;;;;;21.10;97.50;21.20;99419.00;;;;341995;28;83468;-91
2021/07/28 00:19:23;;;;;;;;;;;21.20;97.80;21.20;99412.00;;;;343745;28;83667;-91
2021/07/28 00:19:51;;;;;;;;;;;21.20;97.70;21.20;99416.00;;;;341651;28;90314;-91
2021/07/28 00:20:07;;;;;;;;;;;21.20;97.80;21.20;99407.00;;;;344916;28;83424;-91
2021/07/28 00:23:16;;;;;;;;;;;21.10;97.90;21.10;99399.00;;;;344295;28;90586;-91
2021/07/28 00:23:28;;;;;;;;;;;21.10;97.90;21.20;99398.00;;;;341897;28;83450;-91
2021/07/28 00:23:40;;;;;;;;;;;21.10;97.90;21.10;99397.00;;;;340153;28;91195;-92
2021/07/28 00:23:52;;;;;;;;;;;21.10;98.00;21.00;99397.00;;;;343408;28;82497;-91
2021/07/28 00:24:04;;;;;;;;;;;21.10;98.00;21.10;99402.00;;;;340202;28;91520;-92
2021/07/28 00:24:16;;;;;;;;;;;21.00;98.00;21.10;99394.00;;;;341919;28;83414;-91
2021/07/28 00:24:31;;;;;;;;;;;21.10;98.10;21.00;99394.00;;;;342741;28;92391;-91
2021/07/28 00:24:43;;;;;;;;;;;21.10;98.10;21.00;99402.00;;;;342049;28;83475;-91
2021/07/28 00:24:54;;;;;;;;;;;21.00;98.10;21.00;99403.00;;;;341994;28;92155;-91
2021/07/28 00:25:07;;;;;;;;;;;21.00;98.10;21.10;99391.00;;;;342754;28;83428;-91
2021/07/28 00:25:18;;;;;;;;;;;21.00;98.10;21.00;99395.00;;;;337496;28;90907;-91
2021/07/28 00:25:33;;;;;;;;;;;21.00;98.00;21.00;99400.00;;;;340631;28;83419;-91
2021/07/28 00:25:47;;;;;;;;;;;21.00;97.90;21.00;99396.00;;;;340250;28;90831;-92
2021/07/28 00:25:59;;;;;;;;;;;21.00;97.90;21.10;99398.00;;;;341652;28;83539;-91
2021/07/28 00:26:12;;;;;;;;;;;21.00;98.00;21.10;99402.00;;;;341452;28;91310;-92
2021/07/28 00:26:23;;;;;;;;;;;21.00;98.00;21.10;99403.00;;;;344645;28;83584;-91
2021/07/28 00:26:35;;;;;;;;;;;21.00;97.90;21.10;99398.00;;;;341517;28;92402;-91
2021/07/28 00:26:47;;;;;;;;;;;21.10;97.90;21.00;99401.00;;;;342098;28;83484;-91
2021/07/28 00:26:59;;;;;;;;;;;21.00;97.80;21.00;99404.00;;;;345483;28;91954;-91
2021/07/28 00:27:11;;;;;;;;;;;21.00;97.80;21.00;99408.00;;;;340688;28;82474;-90
2021/07/28 00:27:23;;;;;;;;;;;21.00;97.80;21.10;99406.00;;;;340240;28;90984;-91
2021/07/28 00:27:35;;;;;;;;;;;21.00;97.80;21.10;99411.00;;;;341959;28;82475;-91
2021/07/28 00:27:49;;;;;;;;;;;21.00;97.80;21.10;99412.00;;;;341339;28;91676;-91
2021/07/28 00:28:03;;;;;;;;;;;21.00;97.80;21.10;99414.00;;;;340721;28;82474;-91
2021/07/28 00:28:14;;;;;;;;;;;21.00;97.70;21.10;99408.00;;;;341529;28;92380;-92
2021/07/28 00:28:26;;;;;;;;;;;21.00;97.70;21.20;99412.00;;;;341603;28;84980;-91
2021/07/28 00:28:38;;;;;;;;;;;21.00;97.80;21.20;99421.00;;;;341266;28;92374;-92
2021/07/28 00:28:50;;;;;;;;;;;21.00;97.80;21.20;99419.00;;;;343407;28;83458;-91
2021/07/28 00:29:02;;;;;;;;;;;21.00;97.90;21.20;99406.00;;;;338823;28;92379;-92
2021/07/28 00:29:14;;;;;;;;;;;21.00;98.10;21.20;99416.00;;;;340767;28;82410;-91
2021/07/28 00:29:27;;;;;;;;;;;21.10;98.00;21.20;99420.00;;;;340176;28;90594;-91
2021/07/28 00:29:39;;;;;;;;;;;21.10;97.90;21.20;99418.00;;;;341959;28;82567;-91
2021/07/28 00:29:50;;;;;;;;;;;21.10;98.00;21.20;99406.00;;;;342823;28;91464;-92
2021/07/28 00:30:07;;;;;;;;;;;21.10;97.90;21.10;99421.00;;;;340638;28;82519;-91
2021/07/28 00:30:18;;;;;;;;;;;21.10;97.80;21.10;99411.00;;;;340148;28;91150;-90
2021/07/28 00:30:31;;;;;;;;;;;21.10;97.80;21.00;99416.00;;;;339348;28;83354;-91
2021/07/28 00:30:43;;;;;;;;;;;21.10;97.80;21.10;99418.00;;;;340297;28;91541;-91
2021/07/28 00:30:54;;;;;;;;;;;21.10;97.80;21.10;99414.00;;;;341117;28;83592;-90
2021/07/28 00:31:06;;;;;;;;;;;21.10;97.80;21.10;99413.00;;;;342807;28;87998;-92
2021/07/28 00:31:18;;;;;;;;;;;21.10;97.90;21.00;99415.00;;;;343419;28;83420;-91
2021/07/28 00:31:30;;;;;;;;;;;21.10;97.80;21.10;99415.00;;;;338912;28;92052;-91
2021/07/28 00:31:41;;;;;;;;;;;21.10;97.70;21.10;99416.00;;;;339291;28;82720;-91
2021/07/28 00:31:53;;;;;;;;;;;21.10;97.70;21.10;99415.00;;;;341069;28;92114;-91
2021/07/28 00:32:05;;;;;;;;;;;21.10;97.70;21.10;99417.00;;;;339235;28;82456;-91
2021/07/28 00:32:17;;;;;;;;;;;21.10;97.70;21.10;99419.00;;;;342844;28;91290;-91
2021/07/28 00:32:30;;;;;;;;;;;21.10;97.70;21.10;99417.00;;;;341892;28;83489;-91
2021/07/28 00:32:42;;;;;;;;;;;21.10;97.70;21.10;99417.00;;;;341559;28;92626;-91
2021/07/28 00:32:54;;;;;;;;;;;21.10;97.70;21.10;99415.00;;;;341941;28;83322;-91
2021/07/28 00:33:05;;;;;;;;;;;21.10;97.70;21.10;99418.00;;;;338950;28;91389;-91
2021/07/28 00:33:17;;;;;;;;;;;21.10;97.70;21.10;99413.00;;;;339309;28;82432;-91
2021/07/28 00:33:29;;;;;;;;;;;21.10;97.70;21.10;99414.00;;;;341666;28;89812;-91
2021/07/28 00:33:41;;;;;;;;;;;21.10;97.70;21.00;99405.00;;;;340608;28;83550;-91
2021/07/28 00:33:53;;;;;;;;;;;21.10;97.70;21.00;99410.00;;;;340626;28;90404;-91
2021/07/28 00:34:04;;;;;;;;;;;21.10;97.80;21.00;99413.00;;;;339563;28;83391;-90
2021/07/28 00:34:16;;;;;;;;;;;21.10;97.80;21.00;99410.00;;;;341496;28;92217;-92
2021/07/28 00:34:28;;;;;;;;;;;21.10;97.90;20.90;99408.00;;;;340465;28;83500;-91
2021/07/28 00:34:41;;;;;;;;;;;21.10;97.80;20.90;99411.00;;;;341462;28;93239;-91
2021/07/28 00:34:53;;;;;;;;;;;21.00;97.80;21.00;99409.00;;;;339542;28;83407;-91
2021/07/28 00:35:05;;;;;;;;;;;21.00;97.80;21.00;99406.00;;;;341616;28;91102;-91
2021/07/28 00:35:16;;;;;;;;;;;21.00;97.90;20.90;99408.00;;;;342016;28;83374;-90
2021/07/28 00:35:28;;;;;;;;;;;21.00;97.90;20.80;99408.00;;;;342939;28;91491;-90
2021/07/28 00:35:40;;;;;;;;;;;21.00;97.80;20.80;99405.00;;;;341601;28;83480;-91
2021/07/28 00:35:54;;;;;;;;;;;21.00;97.70;20.90;99400.00;;;;340157;28;90853;-91
2021/07/28 00:36:06;;;;;;;;;;;21.00;97.80;21.00;99401.00;;;;340675;28;83431;-91
2021/07/28 00:36:18;;;;;;;;;;;21.00;97.90;20.90;99404.00;;;;338839;28;91994;-91
2021/07/28 00:36:30;;;;;;;;;;;20.90;97.80;20.80;99404.00;;;;339324;28;83530;-92
2021/07/28 00:36:41;;;;;;;;;;;20.90;97.70;20.80;99405.00;;;;341567;28;92407;-91
2021/07/28 00:36:53;;;;;;;;;;;20.90;97.80;20.90;99409.00;;;;342919;28;83568;-91
2021/07/28 00:37:05;;;;;;;;;;;20.90;97.90;20.90;99405.00;;;;341793;28;91042;-90
2021/07/28 00:37:17;;;;;;;;;;;20.90;97.90;21.00;99406.00;;;;341972;28;83442;-91
2021/07/28 00:37:29;;;;;;;;;;;20.90;97.90;21.00;99396.00;;;;342844;28;87931;-91
2021/07/28 00:37:44;;;;;;;;;;;20.90;98.00;21.00;99400.00;;;;341836;28;83358;-91
2021/07/28 00:38:02;;;;;;;;;;;20.90;98.00;21.00;99408.00;;;;338940;28;90834;-91
2021/07/28 00:38:13;;;;;;;;;;;20.90;98.00;21.00;99401.00;;;;339257;28;84189;-91
2021/07/28 00:38:25;;;;;;;;;;;20.90;98.30;21.00;99403.00;;;;340093;28;92011;-91
2021/07/28 00:38:37;;;;;;;;;;;20.90;98.00;21.00;99405.00;;;;340487;28;83443;-90
2021/07/28 00:38:49;;;;;;;;;;;20.90;97.90;21.00;99400.00;;;;341402;28;92500;-91
2021/07/28 00:39:01;;;;;;;;;;;20.90;98.00;21.00;99407.00;;;;341940;28;82566;-91
2021/07/28 00:39:12;;;;;;;;;;;20.90;98.00;21.00;99407.00;;;;340218;28;90433;-91
2021/07/28 00:39:24;;;;;;;;;;;20.90;98.00;21.00;99400.00;;;;339343;28;83369;-91
2021/07/28 00:39:36;;;;;;;;;;;20.90;98.00;21.00;99408.00;;;;341571;28;91159;-90
2021/07/28 00:39:48;;;;;;;;;;;20.90;98.00;20.90;99408.00;;;;341766;28;83668;-91
2021/07/28 00:40:00;;;;;;;;;;;20.90;98.00;21.00;99400.00;;;;338668;28;91510;-91
2021/07/28 00:40:13;;;;;;;;;;;20.90;98.00;21.00;99405.00;;;;341711;28;83692;-91
2021/07/28 00:40:25;;;;;;;;;;;20.90;98.00;20.90;99409.00;;;;341395;28;91711;-91
2021/07/28 00:40:37;;;;;;;;;;;20.90;98.00;20.80;99414.00;;;;340609;28;83390;-91
2021/07/28 00:40:49;;;;;;;;;;;20.90;98.30;20.90;99410.00;;;;341526;28;91355;-91
2021/07/28 00:41:01;;;;;;;;;;;20.90;98.10;21.00;99402.00;;;;339204;28;83483;-91
2021/07/28 00:41:13;;;;;;;;;;;20.90;98.20;21.00;99410.00;;;;338838;28;91552;-91
2021/07/28 00:41:25;;;;;;;;;;;21.00;98.20;21.10;99410.00;;;;339392;28;82492;-91
2021/07/28 00:41:40;;;;;;;;;;;20.90;98.10;21.10;99419.00;;;;340154;28;91708;-91
2021/07/28 00:41:52;;;;;;;;;;;20.90;98.10;21.00;99410.00;;;;342100;28;83525;-91
2021/07/28 00:42:04;;;;;;;;;;;20.90;98.00;21.00;99417.00;;;;344267;28;90875;-91
2021/07/28 00:42:16;;;;;;;;;;;20.90;98.00;21.00;99415.00;;;;339123;28;83471;-91
2021/07/28 00:42:28;;;;;;;;;;;20.90;98.00;21.00;99421.00;;;;340115;28;91881;-91
2021/07/28 00:42:40;;;;;;;;;;;20.90;98.00;21.10;99415.00;;;;340693;28;83565;-91
2021/07/28 00:42:51;;;;;;;;;;;20.90;98.00;21.10;99418.00;;;;341146;28;92519;-90
2021/07/28 00:43:15;;;;;;;;;;;20.90;98.10;21.00;99423.00;;;;340205;28;83532;-91
2021/07/28 00:43:29;;;;;;;;;;;20.90;98.20;21.10;99420.00;;;;341758;28;91395;-91
2021/07/28 00:43:41;;;;;;;;;;;20.90;98.20;21.10;99427.00;;;;343592;28;83470;-91
2021/07/28 00:43:53;;;;;;;;;;;20.90;98.30;21.00;99427.00;;;;340454;28;91158;-91
2021/07/28 00:44:05;;;;;;;;;;;21.00;98.30;20.90;99425.00;;;;342165;28;82505;-91
2021/07/28 00:44:16;;;;;;;;;;;20.90;98.20;21.00;99426.00;;;;341747;28;92133;-91
2021/07/28 00:44:28;;;;;;;;;;;20.90;98.20;21.00;99432.00;;;;343375;28;82581;-90
2021/07/28 00:44:40;;;;;;;;;;;20.90;98.30;21.00;99429.00;;;;340481;28;91750;-91
2021/07/28 00:44:52;;;;;;;;;;;20.90;98.30;21.00;99434.00;;;;340950;28;83416;-91
2021/07/28 00:45:04;;;;;;;;;;;20.90;98.40;21.00;99434.00;;;;341703;28;93313;-91
2021/07/28 00:45:16;;;;;;;;;;;20.90;98.40;21.00;99430.00;;;;342256;28;82632;-91
2021/07/28 00:45:28;;;;;;;;;;;20.90;98.40;21.00;99437.00;;;;340520;28;92430;-91
2021/07/28 00:45:40;;;;;;;;;;;20.90;98.40;21.00;99437.00;;;;344830;28;83500;-89
2021/07/28 00:45:52;;;;;;;;;;;20.90;98.40;21.00;99443.00;;;;340819;28;91198;-91
2021/07/28 00:46:04;;;;;;;;;;;20.90;98.40;21.00;99443.00;;;;340993;28;82783;-91
2021/07/28 00:46:15;;;;;;;;;;;21.00;98.40;21.00;99447.00;;;;340451;28;91946;-91
2021/07/28 00:46:27;;;;;;;;;;;21.00;98.40;21.00;99445.00;;;;343402;28;82584;-91
2021/07/28 00:46:39;;;;;;;;;;;21.00;98.30;21.00;99453.00;;;;340517;28;90805;-91
2021/07/28 00:46:51;;;;;;;;;;;21.00;98.20;21.00;99450.00;;;;341082;28;82509;-90
2021/07/28 00:47:04;;;;;;;;;;;21.00;98.10;21.00;99449.00;;;;341930;28;91594;-90
2021/07/28 00:47:16;;;;;;;;;;;21.00;98.10;21.00;99450.00;;;;339619;28;82637;-89
2021/07/28 00:47:28;;;;;;;;;;;20.90;98.10;21.00;99448.00;;;;343183;28;91059;-92
2021/07/28 00:47:41;;;;;;;;;;;21.00;98.10;21.00;99460.00;;;;344990;28;82582;-91
2021/07/28 00:47:53;;;;;;;;;;;21.00;98.10;21.00;99454.00;;;;341872;28;90792;-91
2021/07/28 00:48:06;;;;;;;;;;;21.00;98.10;21.00;99445.00;;;;341070;28;82614;-91
2021/07/28 00:48:18;;;;;;;;;;;21.00;98.10;21.00;99455.00;;;;343082;28;91831;-91
2021/07/28 00:48:30;;;;;;;;;;;21.00;98.10;21.00;99451.00;;;;344666;28;82606;-91
2021/07/28 00:48:41;;;;;;;;;;;21.00;98.20;21.10;99450.00;;;;340390;28;92163;-91
2021/07/28 00:48:53;;;;;;;;;;;21.00;98.20;21.00;99453.00;;;;341853;28;82802;-91
2021/07/28 00:49:05;;;;;;;;;;;21.00;98.20;21.00;99446.00;;;;340728;28;92176;-91
2021/07/28 00:49:17;;;;;;;;;;;21.00;98.10;21.00;99454.00;;;;340915;28;82566;-91
2021/07/28 00:49:29;;;;;;;;;;;21.00;98.20;21.00;99453.00;;;;340466;28;89257;-91
2021/07/28 00:49:42;;;;;;;;;;;21.00;98.20;21.00;99449.00;;;;340431;28;83527;-91
2021/07/28 00:49:54;;;;;;;;;;;21.00;98.20;21.00;99461.00;;;;339480;28;91288;-91
2021/07/28 00:50:06;;;;;;;;;;;21.00;98.20;21.00;99457.00;;;;342295;28;83355;-91
2021/07/28 00:50:18;;;;;;;;;;;21.00;98.20;21.00;99449.00;;;;340402;28;90921;-92
2021/07/28 00:50:30;;;;;;;;;;;21.00;98.30;20.80;99450.00;;;;339535;28;83712;-92
2021/07/28 00:50:42;;;;;;;;;;;21.00;98.30;20.80;99459.00;;;;341851;28;91259;-92
2021/07/28 00:50:55;;;;;;;;;;;21.00;98.20;20.90;99452.00;;;;342215;28;82665;-92
2021/07/28 00:51:07;;;;;;;;;;;21.00;98.20;20.90;99456.00;;;;340393;28;91588;-91
2021/07/28 00:51:19;;;;;;;;;;;20.90;98.30;20.90;99448.00;;;;339590;28;83529;-91
2021/07/28 00:51:31;;;;;;;;;;;20.90;98.40;20.90;99459.00;;;;340394;28;92301;-92
2021/07/28 00:51:43;;;;;;;;;;;20.90;98.40;21.00;99449.00;;;;342094;28;83450;-92
2021/07/28 00:52:01;;;;;;;;;;;21.00;98.30;21.00;99446.00;;;;342291;28;91971;-92
2021/07/28 00:52:13;;;;;;;;;;;21.00;98.40;20.90;99456.00;;;;340619;28;83414;-92
2021/07/28 00:52:25;;;;;;;;;;;21.00;98.40;21.00;99452.00;;;;342359;28;91176;-92
2021/07/28 00:52:38;;;;;;;;;;;21.00;98.40;20.90;99453.00;;;;340297;28;83438;-90
2021/07/28 00:52:50;;;;;;;;;;;21.00;98.40;20.80;99450.00;;;;338874;28;91077;-92
2021/07/28 00:53:02;;;;;;;;;;;20.90;98.50;20.80;99453.00;;;;341893;28;83491;-92
2021/07/28 00:53:20;;;;;;;;;;;20.90;98.60;20.90;99450.00;;;;337476;28;92256;-92
2021/07/28 00:53:32;;;;;;;;;;;20.90;98.60;20.90;99450.00;;;;338005;28;82559;-92
2021/07/28 00:53:44;;;;;;;;;;;20.90;98.60;20.90;99450.00;;;;338738;28;90842;-92
2021/07/28 00:53:56;;;;;;;;;;;20.90;98.70;20.90;99449.00;;;;340652;28;83491;-92
2021/07/28 00:54:08;;;;;;;;;;;20.90;98.60;20.80;99447.00;;;;341604;28;89950;-92
2021/07/28 00:54:20;;;;;;;;;;;20.90;98.60;20.90;99448.00;;;;340623;28;83623;-92
2021/07/28 00:54:32;;;;;;;;;;;20.90;98.60;20.90;99452.00;;;;340200;28;91229;-92
2021/07/28 00:54:44;;;;;;;;;;;20.90;98.70;20.90;99442.00;;;;339249;28;83529;-92
2021/07/28 00:54:56;;;;;;;;;;;20.90;98.80;20.90;99440.00;;;;341045;28;90507;-92
2021/07/28 00:55:08;;;;;;;;;;;20.90;98.90;20.90;99441.00;;;;342044;28;83339;-91
2021/07/28 00:55:19;;;;;;;;;;;20.90;98.80;20.90;99440.00;;;;342559;28;92201;-91
2021/07/28 00:55:31;;;;;;;;;;;20.90;98.80;20.90;99444.00;;;;338021;28;83399;-92
2021/07/28 00:55:51;;;;;;;;;;;20.90;98.80;20.90;99446.00;;;;338843;28;92183;-91
2021/07/28 00:56:03;;;;;;;;;;;20.90;99.20;20.90;99437.00;;;;339316;28;83403;-91
2021/07/28 00:56:17;;;;;;;;;;;20.90;99.00;20.80;99434.00;;;;341145;28;90659;-91
2021/07/28 00:56:28;;;;;;;;;;;20.90;99.00;20.80;99429.00;;;;338976;28;82700;-92
2021/07/28 00:56:40;;;;;;;;;;;20.90;99.00;20.90;99435.00;;;;340190;28;91009;-91
2021/07/28 00:56:52;;;;;;;;;;;20.90;99.00;20.90;99428.00;;;;339317;28;82533;-92
2021/07/28 00:57:04;;;;;;;;;;;20.90;98.90;20.90;99421.00;;;;337556;28;91571;-92
2021/07/28 00:57:16;;;;;;;;;;;20.90;98.90;20.90;99424.00;;;;337979;28;82488;-92
2021/07/28 00:57:28;;;;;;;;;;;20.90;98.90;21.00;99418.00;;;;340216;28;91453;-91
2021/07/28 00:57:41;;;;;;;;;;;20.90;98.90;20.90;99415.00;;;;340506;28;82637;-91
2021/07/28 00:57:53;;;;;;;;;;;20.80;98.80;21.00;99423.00;;;;340266;28;91870;-92
2021/07/28 00:58:05;;;;;;;;;;;20.80;98.80;21.00;99412.00;;;;339566;28;83385;-91
2021/07/28 00:58:17;;;;;;;;;;;20.80;99.00;21.00;99410.00;;;;340057;28;91861;-92
2021/07/28 00:58:30;;;;;;;;;;;20.80;99.20;21.00;99417.00;;;;341983;28;83427;-91
2021/07/28 00:58:42;;;;;;;;;;;20.80;99.30;21.10;99410.00;;;;338819;28;90922;-92
2021/07/28 00:58:57;;;;;;;;;;;20.80;99.30;21.00;99412.00;;;;340909;28;82509;-91
2021/07/28 00:59:09;;;;;;;;;;;20.80;99.10;21.10;99404.00;;;;339927;28;90366;-92
2021/07/28 00:59:21;;;;;;;;;;;20.80;99.20;21.00;99404.00;;;;339273;28;83494;-91
2021/07/28 00:59:35;;;;;;;;;;;20.90;99.20;20.90;99407.00;;;;340174;28;91617;-93
2021/07/28 00:59:47;;;;;;;;;;;20.80;99.20;20.80;99409.00;;;;342015;28;82465;-92
2021/07/28 00:59:59;;;;;;;;;;;20.80;99.10;20.70;99409.00;;;;342855;28;91589;-92
2021/07/28 01:00:12;;;;;;;;;;;20.80;99.10;20.80;99411.00;;;;342011;28;82534;-92
2021/07/28 01:00:24;;;;;;;;;;;20.80;99.10;20.80;99414.00;;;;340181;28;90158;-91
2021/07/28 01:00:35;;;;;;;;;;;20.80;99.30;20.90;99409.00;;;;341063;28;83350;-92
2021/07/28 01:00:48;;;;;;;;;;;20.80;99.10;20.80;99407.00;;;;341514;28;91416;-92
2021/07/28 01:01:01;;;;;;;;;;;20.80;99.10;20.70;99414.00;;;;343112;28;82688;-91
2021/07/28 01:01:16;;;;;;;;;;;20.80;99.10;20.70;99416.00;;;;341612;28;91460;-92
2021/07/28 01:01:28;;;;;;;;;;;20.80;99.10;20.60;99417.00;;;;342023;28;83387;-92
2021/07/28 01:01:40;;;;;;;;;;;20.80;99.20;20.60;99411.00;;;;342913;28;91371;-91
2021/07/28 01:01:52;;;;;;;;;;;20.80;99.20;20.60;99413.00;;;;344717;28;83506;-92
2021/07/28 01:02:04;;;;;;;;;;;20.70;99.20;20.60;99418.00;;;;341289;28;91337;-92
2021/07/28 01:02:16;;;;;;;;;;;20.80;99.30;20.70;99418.00;;;;341788;28;83407;-92
2021/07/28 01:02:28;;;;;;;;;;;20.70;99.30;20.80;99426.00;;;;344045;28;89705;-91
2021/07/28 01:02:40;;;;;;;;;;;20.70;99.30;20.90;99422.00;;;;342087;28;83354;-92
2021/07/28 01:02:52;;;;;;;;;;;20.70;99.40;20.90;99421.00;;;;341530;28;91355;-91
2021/07/28 01:03:04;;;;;;;;;;;20.80;99.70;20.80;99421.00;;;;342048;28;83459;-92
2021/07/28 01:03:16;;;;;;;;;;;20.80;99.80;20.90;99423.00;;;;344273;28;91927;-92
2021/07/28 01:03:28;;;;;;;;;;;20.80;99.70;20.80;99428.00;;;;342020;28;83324;-92
2021/07/28 01:03:42;;;;;;;;;;;20.70;99.70;20.80;99427.00;;;;341478;28;91828;-92
2021/07/28 01:03:54;;;;;;;;;;;20.70;99.80;20.70;99429.00;;;;342505;28;83624;-92
2021/07/28 01:04:06;;;;;;;;;;;20.70;99.80;20.60;99426.00;;;;342797;28;92269;-92
2021/07/28 01:04:19;;;;;;;;;;;20.70;99.90;20.60;99429.00;;;;343290;28;82992;-92
2021/07/28 01:04:30;;;;;;;;;;;20.70;99.90;20.60;99426.00;;;;342963;28;90228;-92
2021/07/28 01:04:43;;;;;;;;;;;20.70;99.90;20.60;99435.00;;;;346144;28;83402;-93
2021/07/28 01:04:55;;;;;;;;;;;20.70;99.90;20.60;99430.00;;;;342780;28;92059;-93
2021/07/28 01:05:07;;;;;;;;;;;20.70;99.90;20.70;99429.00;;;;343390;28;82509;-93
2021/07/28 01:05:19;;;;;;;;;;;20.70;99.90;20.70;99430.00;;;;341655;28;90295;-93
2021/07/28 01:05:31;;;;;;;;;;;20.70;99.90;20.80;99435.00;;;;340524;28;83463;-92